createdAt,value
2019-05-18T00:00:23.504Z,59.90
2019-05-18T00:02:51.934Z,59.90
2019-05-18T00:05:20.465Z,59.80
2019-05-18T00:07:48.925Z,59.90
2019-05-18T00:10:17.600Z,59.70
2019-05-18T00:12:46.143Z,59.90
2019-05-18T00:15:14.741Z,59.80
2019-05-18T00:17:43.251Z,59.80
2019-05-18T00:20:12.670Z,59.90
2019-05-18T00:22:41.108Z,60.00
2019-05-18T00:25:10.424Z,60.00
2019-05-18T00:27:38.927Z,59.80
2019-05-18T00:30:08.675Z,60.00
2019-05-18T00:32:37.478Z,60.20
2019-05-18T00:35:07.509Z,60.10
2019-05-18T00:37:36.051Z,60.00
2019-05-18T00:40:06.902Z,60.00
2019-05-18T00:42:35.315Z,60.10
2019-05-18T00:45:05.493Z,60.00
2019-05-18T00:47:41.543Z,61.10
2019-05-18T00:50:05.339Z,60.30
2019-05-18T00:52:33.797Z,60.40
2019-05-18T00:55:02.356Z,60.20
2019-05-18T00:57:30.776Z,60.20
2019-05-18T00:59:59.228Z,60.30
2019-05-18T01:02:27.713Z,60.20
2019-05-18T01:04:56.164Z,65.20
2019-05-18T01:07:24.612Z,61.50
2019-05-18T01:09:53.048Z,60.80
2019-05-18T01:12:21.501Z,60.50
2019-05-18T01:14:49.929Z,60.60
2019-05-18T01:17:18.376Z,60.50
2019-05-18T01:19:46.816Z,60.50
2019-05-18T01:22:15.272Z,60.60
2019-05-18T01:24:43.729Z,60.40
2019-05-18T01:27:12.504Z,60.50
2019-05-18T01:29:40.966Z,60.60
2019-05-18T01:32:09.426Z,60.60
2019-05-18T01:34:38.032Z,60.50
2019-05-18T01:37:06.608Z,60.40
2019-05-18T01:39:35.061Z,60.50
2019-05-18T01:42:03.485Z,60.70
2019-05-18T01:44:31.946Z,60.50
2019-05-18T01:47:00.439Z,60.60
2019-05-18T01:49:28.884Z,60.60
2019-05-18T01:51:57.484Z,60.60
2019-05-18T01:54:25.962Z,60.60
2019-05-18T01:56:54.641Z,60.50
2019-05-18T01:59:23.140Z,60.50
2019-05-18T02:01:51.580Z,61.30
2019-05-18T02:04:20.021Z,60.50
2019-05-18T02:06:48.635Z,60.60
2019-05-18T02:09:17.158Z,60.60
2019-05-18T02:11:45.578Z,60.60
2019-05-18T02:14:14.036Z,60.60
2019-05-18T02:16:42.542Z,60.70
2019-05-18T02:19:11.081Z,60.60
2019-05-18T02:21:39.566Z,60.60
2019-05-18T02:24:08.107Z,60.70
2019-05-18T02:26:36.609Z,60.70
2019-05-18T02:29:05.144Z,60.70
2019-05-18T02:31:33.645Z,60.70
2019-05-18T02:34:02.093Z,60.70
2019-05-18T02:36:30.522Z,60.70
2019-05-18T02:38:59.103Z,60.70
2019-05-18T02:41:27.718Z,60.80
2019-05-18T02:43:56.237Z,60.70
2019-05-18T02:46:24.723Z,60.80
2019-05-18T02:48:53.182Z,60.90
2019-05-18T02:51:21.720Z,60.80
2019-05-18T02:53:50.314Z,60.80
2019-05-18T02:56:18.818Z,61.30
2019-05-18T02:58:47.246Z,60.80
2019-05-18T03:01:15.704Z,60.80
2019-05-18T03:03:44.175Z,60.90
2019-05-18T03:06:12.608Z,60.90
2019-05-18T03:08:41.122Z,60.90
2019-05-18T03:11:09.563Z,60.90
2019-05-18T03:13:38.069Z,61.10
2019-05-18T03:16:06.601Z,60.80
2019-05-18T03:18:35.182Z,60.80
2019-05-18T03:21:03.753Z,61.00
2019-05-18T03:23:32.296Z,60.60
2019-05-18T03:26:00.726Z,61.00
2019-05-18T03:28:29.198Z,61.00
2019-05-18T03:30:57.634Z,60.90
2019-05-18T03:33:29.316Z,60.90
2019-05-18T03:35:56.279Z,60.90
2019-05-18T03:38:24.801Z,61.10
2019-05-18T03:40:53.306Z,61.00
2019-05-18T03:43:21.835Z,61.00
2019-05-18T03:45:50.285Z,61.10
2019-05-18T03:48:18.741Z,61.00
2019-05-18T03:50:47.217Z,61.00
2019-05-18T03:53:18.177Z,61.30
2019-05-18T03:55:45.828Z,61.10
2019-05-18T03:58:14.251Z,61.10
2019-05-18T04:00:43.580Z,61.00
2019-05-18T04:03:12.001Z,61.20
2019-05-18T04:05:40.468Z,61.10
2019-05-18T04:08:08.956Z,61.00
2019-05-18T04:10:37.438Z,61.20
2019-05-18T04:13:05.941Z,62.00
2019-05-18T04:15:34.357Z,61.10
2019-05-18T04:18:02.821Z,61.10
2019-05-18T04:20:31.329Z,61.10
2019-05-18T04:22:59.773Z,61.30
2019-05-18T04:25:28.209Z,61.20
2019-05-18T04:27:56.794Z,61.20
2019-05-18T04:30:25.254Z,61.10
2019-05-18T04:32:53.704Z,61.20
2019-05-18T04:35:22.168Z,61.10
2019-05-18T04:37:50.726Z,61.20
2019-05-18T04:40:19.312Z,61.10
2019-05-18T04:42:47.792Z,61.10
2019-05-18T04:45:16.433Z,61.10
2019-05-18T04:47:48.501Z,61.10
2019-05-18T04:50:16.001Z,61.10
2019-05-18T04:52:44.425Z,61.10
2019-05-18T04:55:12.952Z,61.00
2019-05-18T04:57:41.383Z,60.90
2019-05-18T05:00:10.271Z,60.90
2019-05-18T05:02:38.771Z,60.80
2019-05-18T05:05:07.223Z,60.80
2019-05-18T05:07:35.684Z,60.80
2019-05-18T05:10:06.367Z,61.20
2019-05-18T05:12:34.886Z,61.00
2019-05-18T05:15:03.429Z,60.80
2019-05-18T05:17:31.913Z,60.70
2019-05-18T05:20:00.384Z,60.90
2019-05-18T05:22:28.820Z,60.70
2019-05-18T05:24:57.385Z,60.80
2019-05-18T05:27:25.893Z,60.90
2019-05-18T05:29:54.342Z,60.80
2019-05-18T05:32:22.783Z,60.60
2019-05-18T05:34:51.233Z,60.70
2019-05-18T05:37:19.708Z,61.70
2019-05-18T05:39:48.156Z,60.90
2019-05-18T05:42:16.674Z,60.70
2019-05-18T05:44:45.364Z,60.60
2019-05-18T05:47:13.874Z,60.90
2019-05-18T05:49:42.326Z,60.80
2019-05-18T05:52:10.794Z,60.80
2019-05-18T05:54:39.275Z,61.80
2019-05-18T05:57:07.733Z,62.60
2019-05-18T05:59:36.253Z,62.50
2019-05-18T06:02:04.689Z,63.20
2019-05-18T06:04:33.118Z,67.00
2019-05-18T06:07:01.583Z,63.60
2019-05-18T06:09:30.030Z,63.30
2019-05-18T06:11:58.746Z,66.40
2019-05-18T06:14:27.232Z,65.20
2019-05-18T06:16:55.947Z,64.60
2019-05-18T06:19:24.610Z,66.40
2019-05-18T06:21:53.127Z,66.20
2019-05-18T06:24:21.556Z,65.10
2019-05-18T06:26:50.010Z,66.70
2019-05-18T06:29:18.510Z,66.30
2019-05-18T06:31:47.060Z,68.30
2019-05-18T06:34:15.599Z,66.10
2019-05-18T06:36:44.036Z,67.00
2019-05-18T06:39:12.563Z,65.80
2019-05-18T06:41:40.998Z,63.50
2019-05-18T06:44:09.980Z,64.00
2019-05-18T06:46:38.432Z,63.30
2019-05-18T06:49:07.025Z,64.60
2019-05-18T06:51:36.746Z,66.10
2019-05-18T06:54:05.233Z,66.80
2019-05-18T06:56:34.534Z,68.10
2019-05-18T06:59:03.129Z,64.70
2019-05-18T07:01:31.676Z,64.50
2019-05-18T07:04:00.183Z,64.20
2019-05-18T07:06:28.804Z,64.10
2019-05-18T07:08:58.709Z,66.50
2019-05-18T07:11:27.392Z,67.80
2019-05-18T07:13:55.817Z,68.80
2019-05-18T07:16:24.272Z,66.10
2019-05-18T07:18:52.740Z,67.90
2019-05-18T07:21:22.631Z,69.20
2019-05-18T07:23:51.308Z,66.30
2019-05-18T07:26:19.872Z,64.90
2019-05-18T07:28:48.380Z,65.50
2019-05-18T07:31:16.914Z,66.90
2019-05-18T07:33:45.342Z,66.40
2019-05-18T07:36:13.940Z,68.90
2019-05-18T07:38:42.364Z,67.50
2019-05-18T07:41:10.799Z,65.90
2019-05-18T07:43:39.319Z,67.40
2019-05-18T07:46:08.859Z,69.80
2019-05-18T07:48:37.468Z,68.70
2019-05-18T07:51:06.085Z,69.20
2019-05-18T07:53:35.245Z,66.40
2019-05-18T07:56:03.701Z,64.20
2019-05-18T07:58:32.179Z,64.20
2019-05-18T08:01:00.644Z,63.90
2019-05-18T08:03:29.095Z,63.50
2019-05-18T08:05:57.544Z,64.70
2019-05-18T08:08:25.976Z,63.60
2019-05-18T08:10:54.440Z,66.50
2019-05-18T08:13:22.890Z,65.90
2019-05-18T08:15:51.365Z,63.30
2019-05-18T08:18:19.853Z,64.40
2019-05-18T08:20:48.422Z,63.60
2019-05-18T08:23:16.988Z,63.10
2019-05-18T08:25:45.478Z,62.60
2019-05-18T08:28:13.964Z,64.80
2019-05-18T08:30:42.378Z,67.60
2019-05-18T08:33:10.854Z,65.60
2019-05-18T08:35:39.359Z,62.90
2019-05-18T08:38:07.810Z,64.00
2019-05-18T08:40:36.246Z,62.60
2019-05-18T08:43:04.776Z,62.70
2019-05-18T08:45:33.235Z,64.10
2019-05-18T08:48:01.833Z,64.60
2019-05-18T08:50:30.279Z,63.60
2019-05-18T08:52:58.744Z,63.20
2019-05-18T08:55:28.911Z,66.50
2019-05-18T08:57:57.464Z,64.80
2019-05-18T09:00:25.970Z,62.50
2019-05-18T09:02:54.688Z,63.40
2019-05-18T09:05:23.289Z,62.00
2019-05-18T09:07:51.782Z,64.90
2019-05-18T09:10:20.376Z,63.20
2019-05-18T09:12:48.833Z,61.80
2019-05-18T09:15:17.954Z,61.60
2019-05-18T09:17:46.454Z,62.00
2019-05-18T09:20:15.298Z,61.80
2019-05-18T09:22:43.768Z,66.70
2019-05-18T09:25:12.558Z,62.80
2019-05-18T09:27:41.012Z,63.50
2019-05-18T09:30:10.608Z,64.80
2019-05-18T09:32:39.176Z,62.10
2019-05-18T09:35:09.253Z,64.70
2019-05-18T09:37:37.806Z,63.00
2019-05-18T09:40:08.238Z,63.00
2019-05-18T09:42:36.735Z,62.90
2019-05-18T09:45:07.745Z,61.60
2019-05-18T09:47:36.270Z,63.80
2019-05-18T09:50:05.828Z,62.90
2019-05-18T09:52:44.669Z,61.20
2019-05-18T09:55:07.089Z,62.00
2019-05-18T09:57:35.692Z,61.00
2019-05-18T10:00:07.366Z,60.90
2019-05-18T10:02:35.857Z,61.50
2019-05-18T10:05:05.476Z,61.90
2019-05-18T10:07:34.004Z,60.90
2019-05-18T10:10:02.732Z,61.60
2019-05-18T10:12:31.180Z,61.10
2019-05-18T10:14:59.608Z,61.30
2019-05-18T10:17:28.073Z,60.70
2019-05-18T10:19:56.681Z,61.40
2019-05-18T10:22:25.172Z,61.70
2019-05-18T10:24:53.676Z,62.10
2019-05-18T10:27:22.235Z,60.50
2019-05-18T10:29:50.813Z,61.90
2019-05-18T10:32:19.401Z,60.50
2019-05-18T10:34:47.915Z,60.10
2019-05-18T10:37:16.547Z,61.50
2019-05-18T10:39:46.713Z,62.40
2019-05-18T10:42:15.273Z,60.60
2019-05-18T10:44:45.357Z,61.50
2019-05-18T10:47:13.893Z,61.10
2019-05-18T10:49:42.515Z,62.00
2019-05-18T10:52:11.141Z,61.00
2019-05-18T10:54:39.685Z,60.10
2019-05-18T10:57:08.322Z,60.30
2019-05-18T10:59:39.017Z,60.80
2019-05-18T11:02:07.677Z,61.40
2019-05-18T11:04:41.614Z,60.60
2019-05-18T11:07:10.155Z,60.10
2019-05-18T11:09:40.429Z,60.60
2019-05-18T11:12:12.782Z,60.20
2019-05-18T11:14:42.869Z,59.80
2019-05-18T11:17:11.427Z,59.80
2019-05-18T11:19:40.073Z,60.90
2019-05-18T11:22:08.594Z,59.60
2019-05-18T11:24:37.176Z,59.60
2019-05-18T11:27:05.658Z,59.90
2019-05-18T11:29:35.957Z,59.80
2019-05-18T11:32:04.593Z,59.30
2019-05-18T11:34:33.215Z,59.30
2019-05-18T11:37:03.222Z,59.20
2019-05-18T11:39:32.084Z,59.40
2019-05-18T11:42:00.549Z,59.30
2019-05-18T11:44:29.178Z,59.20
2019-05-18T11:46:57.900Z,59.30
2019-05-18T11:49:29.091Z,59.10
2019-05-18T11:51:56.679Z,59.10
2019-05-18T11:54:25.117Z,59.20
2019-05-18T11:56:53.573Z,58.70
2019-05-18T11:59:22.193Z,59.00
2019-05-18T12:01:50.718Z,59.00
2019-05-18T12:04:19.240Z,58.10
2019-05-18T12:06:49.160Z,58.70
2019-05-18T12:09:17.735Z,59.40
2019-05-18T12:11:46.177Z,59.20
2019-05-18T12:14:14.627Z,58.70
2019-05-18T12:16:43.081Z,58.20
2019-05-18T12:19:11.598Z,58.40
2019-05-18T12:21:40.228Z,58.80
2019-05-18T12:24:15.609Z,57.50
2019-05-18T12:26:38.859Z,58.20
2019-05-18T12:29:07.313Z,58.20
2019-05-18T12:31:35.969Z,58.40
2019-05-18T12:34:04.465Z,57.30
2019-05-18T12:36:33.035Z,57.70
2019-05-18T12:39:01.544Z,58.10
2019-05-18T12:41:30.031Z,58.20
2019-05-18T12:43:58.849Z,58.00
2019-05-18T12:46:27.390Z,57.60
2019-05-18T12:48:55.856Z,57.60
2019-05-18T12:51:24.383Z,57.90
2019-05-18T12:53:52.815Z,57.50
2019-05-18T12:56:21.549Z,56.70
2019-05-18T12:58:50.043Z,56.90
2019-05-18T13:01:18.576Z,56.90
2019-05-18T13:03:47.331Z,56.30
2019-05-18T13:06:15.928Z,57.70
2019-05-18T13:08:44.370Z,57.90
2019-05-18T13:11:13.031Z,58.10
2019-05-18T13:13:41.572Z,58.20
2019-05-18T13:16:10.027Z,57.90
2019-05-18T13:18:38.805Z,58.00
2019-05-18T13:21:07.440Z,58.00
2019-05-18T13:23:37.544Z,58.20
2019-05-18T13:26:17.565Z,58.20
2019-05-18T13:28:43.505Z,58.30
2019-05-18T13:31:11.955Z,58.00
2019-05-18T13:33:40.440Z,58.40
2019-05-18T13:36:08.864Z,58.20
2019-05-18T13:38:37.319Z,58.40
2019-05-18T13:41:05.810Z,58.50
2019-05-18T13:43:34.256Z,58.60
2019-05-18T13:46:02.690Z,58.60
2019-05-18T13:48:31.156Z,58.60
2019-05-18T13:50:59.668Z,58.70
2019-05-18T13:53:28.102Z,58.50
2019-05-18T13:55:56.565Z,58.40
2019-05-18T13:58:24.993Z,58.70
2019-05-18T14:00:53.655Z,58.80
2019-05-18T14:03:22.158Z,58.70
2019-05-18T14:05:50.638Z,58.10
2019-05-18T14:08:19.087Z,58.30
2019-05-18T14:10:47.622Z,58.60
2019-05-18T14:13:16.071Z,59.00
2019-05-18T14:15:44.679Z,59.20
2019-05-18T14:18:13.180Z,59.20
2019-05-18T14:20:41.880Z,60.10
2019-05-18T14:23:12.089Z,60.10
2019-05-18T14:25:49.583Z,60.20
2019-05-18T14:28:18.169Z,60.60
2019-05-18T14:30:51.295Z,60.60
2019-05-18T14:33:21.026Z,60.20
2019-05-18T14:35:49.616Z,61.10
2019-05-18T14:38:18.212Z,60.90
2019-05-18T14:40:51.586Z,61.10
2019-05-18T14:43:20.200Z,61.30
2019-05-18T14:45:55.788Z,61.30
2019-05-18T14:48:24.331Z,61.30
2019-05-18T14:50:52.848Z,61.40
2019-05-18T14:53:21.605Z,61.80
2019-05-18T14:55:50.515Z,61.70
2019-05-18T14:58:19.077Z,61.60
2019-05-18T15:00:47.607Z,61.90
2019-05-18T15:03:16.299Z,61.90
2019-05-18T15:05:44.810Z,62.10
2019-05-18T15:08:13.471Z,62.10
2019-05-18T15:10:50.385Z,62.00
2019-05-18T15:13:26.190Z,62.30
2019-05-18T15:15:59.025Z,62.30
2019-05-18T15:18:29.143Z,62.70
2019-05-18T15:21:00.661Z,62.60
2019-05-18T15:23:29.341Z,62.50
2019-05-18T15:25:58.869Z,62.60
2019-05-18T15:28:27.522Z,63.70
2019-05-18T15:30:56.071Z,63.50
2019-05-18T15:33:24.625Z,63.60
2019-05-18T15:35:53.066Z,63.90
2019-05-18T15:38:24.899Z,63.00
2019-05-18T15:40:53.414Z,62.90
2019-05-18T15:43:21.899Z,62.80
2019-05-18T15:45:52.112Z,63.20
2019-05-18T15:48:20.650Z,62.90
2019-05-18T18:27:58.093Z,63.70
2019-05-18T18:30:26.741Z,64.40
2019-05-18T18:32:55.268Z,63.70
2019-05-18T18:35:23.818Z,63.40
2019-05-18T18:37:52.289Z,63.30
2019-05-18T18:40:22.058Z,63.20
2019-05-18T18:42:50.565Z,63.30
2019-05-18T18:45:19.191Z,63.20
2019-05-18T18:47:47.690Z,63.10
2019-05-18T18:50:16.660Z,63.00
2019-05-18T23:03:13.784Z,64.10
2019-05-18T23:05:42.484Z,63.30
2019-05-18T23:08:10.994Z,63.40
2019-05-18T23:10:39.502Z,63.20
2019-05-18T23:13:07.948Z,63.50
2019-05-18T23:15:36.517Z,63.20
2019-05-18T23:18:05.015Z,63.30
2019-05-18T23:20:33.524Z,63.40
2019-05-18T23:23:02.112Z,63.40
2019-05-18T23:25:30.601Z,63.30
2019-05-18T23:27:59.108Z,63.20
2019-05-18T23:30:27.675Z,63.70
2019-05-18T23:32:56.152Z,63.60
2019-05-18T23:35:24.697Z,64.10
2019-05-18T23:37:53.277Z,66.30
2019-05-18T23:40:21.892Z,66.90
2019-05-18T23:42:53.391Z,66.00
2019-05-18T23:45:21.874Z,66.00
2019-05-18T23:47:51.503Z,65.00
2019-05-18T23:50:20.094Z,64.60
2019-05-18T23:52:48.562Z,65.10
2019-05-18T23:55:17.226Z,64.60
2019-05-18T23:57:45.696Z,64.30
